Time;durP1;ratioP1;P1;durP2;ratioP2;P2;SDS_P1;SDS_P2;PMS_P1;PMS_P2;Temp;Humidity;BMP_temperature;BMP_pressure;BME280_temperature;BME280_humidity;BME280_pressure;Samples;Min_cycle;Max_cycle;Signal;HPM_P1;HPM_P2
2022/10/30 00:01:05;;;;;;;5.47;2.87;;;14.50;99.90;;;;;;5057069;28;20638;-77
2022/10/30 00:03:32;;;;;;;4.97;3.00;;;14.50;99.90;;;;;;5069845;28;20189;-77
2022/10/30 00:05:58;;;;;;;10.07;3.17;;;14.50;99.90;;;;;;5084730;28;20182;-77
2022/10/30 00:08:24;;;;;;;5.10;2.50;;;14.50;99.90;;;;;;5076144;28;20205;-77
2022/10/30 00:10:52;;;;;;;4.93;2.50;;;14.40;99.90;;;;;;5057377;28;20208;-77
2022/10/30 00:13:19;;;;;;;6.40;2.60;;;14.40;99.90;;;;;;5059928;28;20277;-77
2022/10/30 00:15:52;;;;;;;4.27;2.50;;;14.40;99.90;;;;;;5083134;28;20190;-77
2022/10/30 00:18:20;;;;;;;5.67;2.93;;;14.30;99.90;;;;;;5080702;28;20270;-77
2022/10/30 00:20:48;;;;;;;5.03;3.03;;;14.30;99.90;;;;;;5064302;28;20201;-77
2022/10/30 00:23:15;;;;;;;7.13;2.80;;;14.30;99.90;;;;;;5064839;28;20922;-77
2022/10/30 00:25:42;;;;;;;6.33;2.70;;;14.40;99.90;;;;;;5051432;28;20269;-77
2022/10/30 00:28:08;;;;;;;5.33;2.70;;;14.40;99.90;;;;;;5048548;28;20217;-77
2022/10/30 00:30:35;;;;;;;6.33;2.80;;;14.40;99.90;;;;;;5067319;28;20269;-77
2022/10/30 00:33:02;;;;;;;5.27;2.63;;;14.40;99.90;;;;;;5087607;28;20200;-77
2022/10/30 00:35:29;;;;;;;7.07;2.53;;;14.40;99.90;;;;;;5083776;28;20194;-77
2022/10/30 00:37:57;;;;;;;6.40;3.00;;;14.40;99.90;;;;;;5066058;28;20202;-77
2022/10/30 00:40:23;;;;;;;6.73;2.40;;;14.40;99.90;;;;;;5072968;28;20588;-77
2022/10/30 00:42:50;;;;;;;7.03;3.17;;;14.40;99.90;;;;;;5062391;28;20232;-77
2022/10/30 00:45:17;;;;;;;5.03;2.83;;;14.40;99.90;;;;;;5068333;28;20260;-77
2022/10/30 00:48:02;;;;;;;3.97;2.60;;;14.30;99.90;;;;;;5054854;28;20218;-77
2022/10/30 00:50:36;;;;;;;5.23;2.70;;;14.40;99.90;;;;;;5047622;28;20201;-77
2022/10/30 00:53:16;;;;;;;5.30;2.70;;;14.40;99.90;;;;;;5077495;28;20234;-77
2022/10/30 00:55:56;;;;;;;5.60;2.57;;;14.40;99.90;;;;;;5084890;28;20186;-77
2022/10/30 00:58:41;;;;;;;4.90;2.53;;;14.40;99.90;;;;;;5072800;28;20245;-77
2022/10/30 01:01:18;;;;;;;8.30;3.10;;;14.30;99.90;;;;;;5065329;28;20186;-77
2022/10/30 01:03:49;;;;;;;7.47;2.73;;;14.30;99.90;;;;;;5069676;28;20259;-77
2022/10/30 01:06:16;;;;;;;5.70;3.03;;;14.30;99.90;;;;;;5066968;28;20205;-77
2022/10/30 01:08:45;;;;;;;6.10;2.50;;;14.30;99.90;;;;;;5078861;28;20333;-76
2022/10/30 01:11:11;;;;;;;6.43;2.80;;;14.20;99.90;;;;;;5086648;28;20226;-77
2022/10/30 01:13:42;;;;;;;4.57;2.90;;;14.20;99.90;;;;;;5051743;28;20228;-77
2022/10/30 01:16:26;;;;;;;4.20;2.53;;;14.20;99.90;;;;;;5078116;28;20214;-76
2022/10/30 01:19:23;;;;;;;5.97;2.97;;;14.20;99.90;;;;;;5085931;28;20214;-76
2022/10/30 01:22:24;;;;;;;9.27;2.67;;;14.20;99.90;;;;;;5071055;28;20193;-76
2022/10/30 01:25:07;;;;;;;9.93;2.80;;;14.20;99.90;;;;;;5057287;28;20185;-76
2022/10/30 01:28:17;;;;;;;7.17;3.23;;;14.20;99.90;;;;;;5070326;28;20182;-76
2022/10/30 01:31:30;;;;;;;4.90;2.50;;;14.10;99.90;;;;;;5067544;28;20220;-77
2022/10/30 01:34:30;;;;;;;5.03;2.70;;;14.10;99.90;;;;;;5025576;28;20221;-76
2022/10/30 01:37:14;;;;;;;6.63;3.00;;;14.10;99.90;;;;;;5086287;28;20280;-77
2022/10/30 01:39:41;;;;;;;8.83;2.83;;;14.10;99.90;;;;;;5066414;28;20217;-76
2022/10/30 01:42:49;;;;;;;6.37;3.00;;;14.10;99.90;;;;;;5090203;28;20205;-76
2022/10/30 01:46:29;;;;;;;5.13;2.57;;;14.10;99.90;;;;;;5068988;28;20197;-76
2022/10/30 01:49:30;;;;;;;6.03;3.33;;;14.10;99.90;;;;;;4986961;28;20606;-76
2022/10/30 01:52:07;;;;;;;4.30;2.90;;;14.00;99.90;;;;;;5005262;28;20192;-76
2022/10/30 01:54:57;;;;;;;5.00;2.60;;;14.00;99.90;;;;;;5069799;28;20609;-76
2022/10/30 01:57:48;;;;;;;4.67;2.40;;;14.00;99.90;;;;;;5046480;28;20182;-76
2022/10/30 02:00:16;;;;;;;5.10;3.03;;;14.00;99.90;;;;;;5079894;28;20237;-76
2022/10/30 02:02:45;;;;;;;8.47;2.90;;;14.00;99.90;;;;;;5088574;28;20178;-76
2022/10/30 02:05:37;;;;;;;5.07;2.77;;;14.10;99.90;;;;;;5050122;28;20183;-76
2022/10/30 02:08:04;;;;;;;6.30;2.80;;;14.10;99.90;;;;;;5059882;28;20201;-76
2022/10/30 02:10:34;;;;;;;6.90;2.67;;;14.10;99.90;;;;;;5068494;28;20723;-76
2022/10/30 02:13:01;;;;;;;5.27;2.67;;;14.10;99.90;;;;;;5071788;28;20273;-76
2022/10/30 02:15:28;;;;;;;7.43;2.63;;;14.00;99.90;;;;;;5069081;28;20190;-76
2022/10/30 02:17:55;;;;;;;6.83;2.73;;;14.10;99.90;;;;;;5083418;28;20190;-76
2022/10/30 02:20:23;;;;;;;6.37;2.60;;;14.10;99.90;;;;;;5080188;28;20237;-76
2022/10/30 02:22:50;;;;;;;6.07;2.70;;;14.10;99.90;;;;;;5089159;28;20243;-76
2022/10/30 02:25:16;;;;;;;3.53;2.53;;;14.10;99.90;;;;;;5066350;28;20187;-76
2022/10/30 02:27:42;;;;;;;9.13;3.17;;;14.10;99.90;;;;;;5082525;28;20793;-77
2022/10/30 02:30:09;;;;;;;3.77;2.47;;;14.00;99.90;;;;;;5079107;28;20272;-76
2022/10/30 02:32:36;;;;;;;9.03;2.83;;;14.10;99.90;;;;;;5084100;28;20414;-77
2022/10/30 02:35:03;;;;;;;14.30;3.10;;;14.10;99.90;;;;;;5067272;28;20681;-76
2022/10/30 02:37:31;;;;;;;5.77;3.23;;;14.00;99.90;;;;;;5087488;28;20241;-76
2022/10/30 02:39:58;;;;;;;7.20;2.73;;;14.00;99.90;;;;;;5051000;28;20224;-76
2022/10/30 02:42:26;;;;;;;5.97;2.97;;;14.00;99.90;;;;;;5054408;28;20216;-76
2022/10/30 02:44:53;;;;;;;3.27;2.30;;;14.00;99.90;;;;;;5087443;28;20292;-76
2022/10/30 02:47:19;;;;;;;9.60;2.60;;;14.00;99.90;;;;;;5074742;28;20821;-76
2022/10/30 02:49:46;;;;;;;5.47;2.80;;;14.00;99.90;;;;;;5087957;28;20200;-76
2022/10/30 02:52:12;;;;;;;8.93;2.87;;;13.90;99.90;;;;;;5066761;28;20200;-76
2022/10/30 02:54:39;;;;;;;8.33;2.70;;;13.90;99.90;;;;;;5070172;28;20185;-76
2022/10/30 02:57:07;;;;;;;8.07;2.60;;;13.90;99.90;;;;;;5066164;28;20280;-76
2022/10/30 02:59:34;;;;;;;5.63;2.70;;;13.90;99.90;;;;;;5067746;28;20217;-76
2022/10/30 03:02:01;;;;;;;4.90;2.70;;;13.90;99.90;;;;;;5070499;28;20239;-78
2022/10/30 03:04:27;;;;;;;3.50;2.57;;;13.90;99.90;;;;;;5080961;28;20956;-78
2022/10/30 03:06:54;;;;;;;6.70;2.73;;;13.80;99.90;;;;;;5054830;28;20309;-77
2022/10/30 03:09:22;;;;;;;4.27;2.60;;;13.70;99.90;;;;;;5070282;28;20216;-78
2022/10/30 03:11:48;;;;;;;6.77;2.70;;;13.70;99.90;;;;;;5070812;28;20208;-77
2022/10/30 03:14:15;;;;;;;4.73;2.60;;;13.80;99.90;;;;;;5067537;28;20217;-76
2022/10/30 03:16:41;;;;;;;4.60;2.40;;;13.80;99.90;;;;;;5059515;28;20225;-78
2022/10/30 03:19:08;;;;;;;5.47;2.30;;;13.80;99.90;;;;;;5070054;28;20225;-77
2022/10/30 03:21:35;;;;;;;4.30;2.63;;;13.80;99.90;;;;;;5050514;28;20273;-76
2022/10/30 03:24:02;;;;;;;5.50;2.43;;;13.80;99.90;;;;;;5065841;28;20250;-78
2022/10/30 03:26:30;;;;;;;7.33;2.67;;;13.80;99.90;;;;;;5066633;28;20331;-78
2022/10/30 03:28:56;;;;;;;5.70;2.67;;;13.70;99.90;;;;;;5079164;28;20223;-76
2022/10/30 03:31:23;;;;;;;7.70;2.77;;;13.70;99.90;;;;;;5088122;28;20269;-76
2022/10/30 03:33:49;;;;;;;10.13;2.63;;;13.70;99.90;;;;;;5063278;28;20198;-76
2022/10/30 03:36:17;;;;;;;6.37;2.50;;;13.70;99.90;;;;;;5059632;28;20602;-76
2022/10/30 03:38:43;;;;;;;6.13;2.73;;;13.70;99.90;;;;;;5069718;28;20202;-78
2022/10/30 03:41:10;;;;;;;8.07;2.60;;;13.60;99.90;;;;;;5077832;28;20512;-78
2022/10/30 03:43:36;;;;;;;4.93;2.33;;;13.60;99.90;;;;;;5087371;28;20190;-78
2022/10/30 03:46:03;;;;;;;4.80;2.27;;;13.60;99.90;;;;;;5060305;28;20205;-78
2022/10/30 03:48:30;;;;;;;3.67;2.57;;;13.60;99.90;;;;;;5052163;28;20190;-78
2022/10/30 03:51:02;;;;;;;7.03;2.90;;;13.60;99.90;;;;;;5050785;28;20225;-78
2022/10/30 03:53:29;;;;;;;6.80;2.47;;;13.60;99.90;;;;;;5073514;28;20514;-78
2022/10/30 03:56:01;;;;;;;4.17;2.40;;;13.60;99.90;;;;;;5064626;28;20289;-78
2022/10/30 03:58:29;;;;;;;8.43;2.50;;;13.60;99.90;;;;;;5072234;28;20893;-78
2022/10/30 04:01:05;;;;;;;7.70;2.60;;;13.60;99.90;;;;;;5079157;28;20179;-78
2022/10/30 04:03:32;;;;;;;5.17;2.40;;;13.50;99.90;;;;;;5044430;28;20194;-78
2022/10/30 04:05:59;;;;;;;4.27;2.77;;;13.40;99.90;;;;;;5049391;28;20545;-78
2022/10/30 04:08:25;;;;;;;5.10;2.10;;;13.40;99.90;;;;;;5069183;28;20202;-78
2022/10/30 04:10:52;;;;;;;4.70;2.10;;;13.50;99.90;;;;;;5043655;28;20519;-79
2022/10/30 04:13:19;;;;;;;3.73;2.40;;;13.50;99.90;;;;;;5066820;28;20239;-78
2022/10/30 04:15:48;;;;;;;5.70;2.40;;;13.50;99.90;;;;;;5061187;28;20220;-78
2022/10/30 04:18:16;;;;;;;4.00;2.20;;;13.50;99.90;;;;;;5051285;28;20643;-78
2022/10/30 04:20:44;;;;;;;5.13;2.40;;;13.50;99.90;;;;;;5050849;28;20593;-78
2022/10/30 04:23:18;;;;;;;5.37;2.50;;;13.50;99.90;;;;;;5080337;28;20216;-78
2022/10/30 04:25:44;;;;;;;9.40;2.60;;;13.50;99.90;;;;;;5054915;28;20194;-78
2022/10/30 04:28:11;;;;;;;8.23;2.27;;;13.40;99.90;;;;;;5049636;28;20243;-78
2022/10/30 04:30:39;;;;;;;4.60;2.30;;;13.40;99.90;;;;;;5054884;28;20229;-78
2022/10/30 04:33:10;;;;;;;5.77;2.23;;;13.50;99.90;;;;;;5063638;28;20634;-78
2022/10/30 04:35:37;;;;;;;4.60;2.30;;;13.50;99.90;;;;;;5075349;28;20206;-78
2022/10/30 04:38:09;;;;;;;6.10;2.30;;;13.50;99.90;;;;;;5068455;28;20558;-78
2022/10/30 04:40:39;;;;;;;6.33;2.30;;;13.60;99.90;;;;;;5085186;28;20769;-78
2022/10/30 04:43:09;;;;;;;6.03;2.43;;;13.50;99.90;;;;;;5069457;28;20182;-78
2022/10/30 04:45:37;;;;;;;7.00;2.77;;;13.60;99.90;;;;;;5050461;28;20273;-79
2022/10/30 04:48:12;;;;;;;7.80;2.50;;;13.60;99.90;;;;;;5045364;28;20190;-78
2022/10/30 04:50:39;;;;;;;5.13;2.20;;;13.60;99.90;;;;;;5065356;28;20194;-78
2022/10/30 04:53:13;;;;;;;6.73;2.20;;;13.60;99.90;;;;;;5069061;28;20209;-78
2022/10/30 04:55:40;;;;;;;6.13;2.40;;;13.70;99.90;;;;;;5055187;28;20788;-78
2022/10/30 04:58:08;;;;;;;4.23;2.43;;;13.70;99.90;;;;;;5083487;28;20209;-78
2022/10/30 05:00:34;;;;;;;4.53;1.93;;;13.80;99.90;;;;;;5084986;28;20245;-78
2022/10/30 05:03:02;;;;;;;8.30;2.57;;;13.80;99.90;;;;;;5066528;28;20198;-78
2022/10/30 05:05:29;;;;;;;7.57;2.40;;;13.80;99.90;;;;;;5055701;28;20178;-78
2022/10/30 05:07:56;;;;;;;3.53;2.13;;;13.90;99.90;;;;;;5064163;28;20252;-78
2022/10/30 05:10:23;;;;;;;2.90;2.30;;;13.90;99.90;;;;;;5082683;28;20201;-78
2022/10/30 05:12:53;;;;;;;3.73;2.30;;;14.00;99.90;;;;;;5052760;28;20574;-78
2022/10/30 05:15:20;;;;;;;6.13;2.40;;;14.00;99.90;;;;;;5053493;28;20190;-79
2022/10/30 05:17:52;;;;;;;5.37;2.57;;;14.00;99.90;;;;;;5064026;28;20277;-78
2022/10/30 05:20:22;;;;;;;5.10;2.30;;;14.10;99.90;;;;;;5052643;28;20872;-78
2022/10/30 05:22:59;;;;;;;5.10;2.43;;;14.10;99.90;;;;;;5085337;28;20194;-78
2022/10/30 05:25:27;;;;;;;4.40;2.40;;;14.20;99.90;;;;;;5070414;28;20214;-76
2022/10/30 05:28:06;;;;;;;5.23;2.53;;;14.30;99.90;;;;;;5076066;28;20218;-79
2022/10/30 05:30:34;;;;;;;6.43;2.37;;;14.40;99.90;;;;;;5084062;28;20662;-78
2022/10/30 05:33:06;;;;;;;3.87;2.13;;;14.50;99.90;;;;;;5068150;28;20205;-78
2022/10/30 05:35:35;;;;;;;5.23;2.33;;;14.50;99.90;;;;;;5088546;28;20798;-76
2022/10/30 05:38:05;;;;;;;5.67;2.50;;;14.60;99.90;;;;;;5055279;28;20242;-78
2022/10/30 05:40:34;;;;;;;5.97;2.37;;;14.70;99.90;;;;;;5045978;28;20338;-77
2022/10/30 05:43:00;;;;;;;3.77;2.20;;;14.70;99.90;;;;;;5053527;28;20195;-78
2022/10/30 05:45:27;;;;;;;6.13;2.13;;;14.70;99.90;;;;;;5065532;28;20191;-78
2022/10/30 05:47:55;;;;;;;5.50;2.60;;;14.80;99.90;;;;;;5071421;28;20182;-76
2022/10/30 05:50:22;;;;;;;4.50;2.30;;;14.90;99.90;;;;;;5071012;28;20198;-76
2022/10/30 05:52:55;;;;;;;5.13;2.20;;;15.00;99.90;;;;;;5067969;28;20206;-76
2022/10/30 05:55:23;;;;;;;4.97;2.40;;;15.10;99.90;;;;;;5070936;28;20573;-76
2022/10/30 05:57:54;;;;;;;4.33;2.60;;;15.20;99.90;;;;;;5067798;28;20251;-76
2022/10/30 06:00:20;;;;;;;3.83;2.40;;;15.20;99.90;;;;;;5055106;28;20210;-76
2022/10/30 06:02:49;;;;;;;8.47;2.43;;;15.20;99.90;;;;;;5068479;28;20202;-76
2022/10/30 06:05:15;;;;;;;5.03;2.53;;;15.30;99.90;;;;;;5068726;28;20206;-76
2022/10/30 06:07:41;;;;;;;6.27;2.97;;;15.30;99.90;;;;;;5090152;28;20347;-76
2022/10/30 06:10:08;;;;;;;5.73;2.53;;;15.40;99.90;;;;;;5067316;28;20489;-76
2022/10/30 06:12:34;;;;;;;4.13;2.20;;;15.40;99.90;;;;;;5064135;28;20195;-76
2022/10/30 06:15:01;;;;;;;8.00;2.30;;;15.50;99.90;;;;;;5087752;28;20189;-76
2022/10/30 06:17:31;;;;;;;3.93;2.17;;;15.50;99.90;;;;;;5066377;28;20194;-76
2022/10/30 06:19:57;;;;;;;6.17;2.60;;;15.60;99.90;;;;;;5069190;28;20202;-76
2022/10/30 06:22:26;;;;;;;4.93;2.20;;;15.60;99.90;;;;;;5070235;28;20190;-76
2022/10/30 06:24:53;;;;;;;5.67;2.33;;;15.70;99.90;;;;;;5071259;28;20220;-76
2022/10/30 06:27:19;;;;;;;7.73;2.50;;;15.70;99.90;;;;;;5066584;28;20541;-76
2022/10/30 06:29:46;;;;;;;6.03;2.00;;;15.80;99.90;;;;;;5065853;28;20290;-76
2022/10/30 06:32:13;;;;;;;6.37;2.03;;;15.80;99.90;;;;;;5063899;28;20277;-76
2022/10/30 06:34:40;;;;;;;6.50;2.30;;;15.90;99.90;;;;;;5082432;28;20205;-76
2022/10/30 06:37:06;;;;;;;5.63;1.93;;;15.90;99.90;;;;;;5052703;28;20183;-76
2022/10/30 06:39:32;;;;;;;4.60;2.00;;;16.00;99.90;;;;;;5064623;28;20562;-76
2022/10/30 06:41:59;;;;;;;3.30;1.90;;;16.00;99.90;;;;;;5065479;28;20272;-76
2022/10/30 06:44:27;;;;;;;4.70;1.87;;;16.10;99.90;;;;;;5081800;28;20186;-76
2022/10/30 06:46:55;;;;;;;10.70;2.10;;;16.10;99.90;;;;;;5055537;28;20271;-76
2022/10/30 06:49:21;;;;;;;8.37;2.40;;;16.20;99.90;;;;;;5050226;28;20197;-75
2022/10/30 06:51:50;;;;;;;8.83;2.20;;;16.30;99.90;;;;;;5066259;28;20213;-76
2022/10/30 06:54:16;;;;;;;5.23;2.53;;;16.40;99.90;;;;;;5087710;28;20293;-76
2022/10/30 06:56:42;;;;;;;3.17;1.93;;;16.40;99.90;;;;;;5089571;28;20190;-76
2022/10/30 06:59:12;;;;;;;3.93;2.00;;;16.40;99.90;;;;;;5065708;28;20214;-75
2022/10/30 07:01:38;;;;;;;4.57;2.33;;;16.40;99.90;;;;;;5066898;28;20197;-76
2022/10/30 07:04:04;;;;;;;5.50;2.40;;;16.50;99.90;;;;;;5067903;28;20190;-76
2022/10/30 07:06:31;;;;;;;4.90;2.07;;;16.50;99.90;;;;;;5060046;28;20611;-76
2022/10/30 07:08:57;;;;;;;4.97;2.33;;;16.50;99.90;;;;;;5080823;28;20316;-76
2022/10/30 07:11:24;;;;;;;5.67;2.53;;;16.70;99.90;;;;;;5066670;28;20190;-77
2022/10/30 07:13:50;;;;;;;4.23;1.97;;;17.30;99.90;;;;;;5077264;28;20195;-76
2022/10/30 07:16:18;;;;;;;4.50;2.00;;;17.50;99.90;;;;;;5069842;28;20212;-76
2022/10/30 07:18:44;;;;;;;8.87;2.50;;;17.30;99.90;;;;;;5067032;28;20203;-77
2022/10/30 07:21:10;;;;;;;4.03;2.03;;;17.20;99.90;;;;;;5056297;28;20718;-76
2022/10/30 07:23:37;;;;;;;7.20;2.40;;;17.00;99.90;;;;;;5081118;28;20198;-76
2022/10/30 07:26:03;;;;;;;5.97;2.17;;;17.00;99.90;;;;;;5065453;28;20202;-76
2022/10/30 07:28:30;;;;;;;7.17;2.17;;;17.00;99.90;;;;;;5061673;28;20206;-78
2022/10/30 07:30:58;;;;;;;12.60;3.80;;;17.00;99.90;;;;;;5062667;28;20267;-76
2022/10/30 07:33:26;;;;;;;5.13;2.33;;;17.10;99.90;;;;;;5053372;28;20201;-76
2022/10/30 07:35:52;;;;;;;7.30;2.90;;;17.10;99.90;;;;;;5082936;28;20716;-76
2022/10/30 07:38:18;;;;;;;7.23;2.20;;;17.20;99.90;;;;;;5050822;28;20178;-76
2022/10/30 07:40:52;;;;;;;9.07;2.33;;;17.30;99.90;;;;;;5070038;28;20190;-77
2022/10/30 07:43:19;;;;;;;5.93;2.50;;;17.30;99.90;;;;;;5069872;28;20189;-77
2022/10/30 07:45:46;;;;;;;9.07;2.23;;;17.40;99.90;;;;;;5065711;28;20563;-78
2022/10/30 07:48:12;;;;;;;8.03;2.37;;;17.40;99.90;;;;;;5066130;28;20244;-77
2022/10/30 07:50:39;;;;;;;11.43;2.57;;;17.50;99.90;;;;;;5077019;28;20194;-78
2022/10/30 07:53:05;;;;;;;5.27;2.50;;;17.50;99.90;;;;;;5045382;28;20277;-78
2022/10/30 07:55:31;;;;;;;6.50;2.60;;;17.60;99.90;;;;;;5067221;28;20251;-78
2022/10/30 07:57:58;;;;;;;6.17;2.10;;;17.60;99.90;;;;;;5075645;28;20233;-78
2022/10/30 08:00:25;;;;;;;5.97;2.07;;;17.70;99.90;;;;;;5055994;28;20218;-78
2022/10/30 08:02:56;;;;;;;8.63;2.33;;;17.80;99.90;;;;;;5045049;28;20183;-77
2022/10/30 08:05:22;;;;;;;6.97;2.20;;;18.10;99.90;;;;;;5065514;28;20202;-78
2022/10/30 08:07:49;;;;;;;5.13;2.30;;;18.10;99.90;;;;;;5060121;28;20197;-78
2022/10/30 08:10:15;;;;;;;9.73;2.30;;;18.00;99.90;;;;;;5059344;28;20269;-78
2022/10/30 08:12:43;;;;;;;4.80;2.47;;;18.10;99.90;;;;;;5077503;28;20229;-78
2022/10/30 08:15:11;;;;;;;8.13;2.50;;;18.10;99.90;;;;;;5067213;28;20198;-78
2022/10/30 08:17:48;;;;;;;7.53;2.40;;;18.20;99.90;;;;;;5044289;28;20201;-78
2022/10/30 08:20:18;;;;;;;6.40;2.20;;;18.30;99.90;;;;;;5056011;28;20239;-78
2022/10/30 08:22:56;;;;;;;13.10;2.60;;;18.40;99.90;;;;;;5054537;28;20579;-78
2022/10/30 08:25:26;;;;;;;3.17;2.20;;;18.40;99.90;;;;;;5059162;28;20575;-78
2022/10/30 08:28:02;;;;;;;7.00;2.40;;;18.60;99.90;;;;;;5056470;28;20201;-78
2022/10/30 08:30:34;;;;;;;9.70;2.37;;;18.70;99.90;;;;;;5060459;28;20187;-78
2022/10/30 08:33:04;;;;;;;7.60;2.50;;;18.80;99.90;;;;;;5069037;28;20190;-78
2022/10/30 08:35:31;;;;;;;4.27;2.20;;;18.90;99.90;;;;;;5062753;28;20197;-78
2022/10/30 08:37:59;;;;;;;6.03;2.73;;;19.00;99.90;;;;;;5058634;28;20195;-77
2022/10/30 08:40:26;;;;;;;7.97;2.60;;;19.20;99.90;;;;;;5049843;28;20213;-77
2022/10/30 08:42:55;;;;;;;4.77;2.50;;;19.40;99.90;;;;;;5083000;28;20209;-77
2022/10/30 08:45:24;;;;;;;8.33;2.27;;;19.30;99.90;;;;;;5061848;28;20243;-78
2022/10/30 08:47:59;;;;;;;10.00;2.50;;;19.30;99.90;;;;;;5057023;28;20293;-77
2022/10/30 08:50:26;;;;;;;5.17;2.50;;;19.40;99.90;;;;;;5074320;28;20189;-78
2022/10/30 08:52:52;;;;;;;7.77;2.50;;;19.50;99.90;;;;;;5078509;28;20204;-78
2022/10/30 08:55:18;;;;;;;12.80;2.30;;;19.60;99.90;;;;;;5062787;28;20190;-78
2022/10/30 08:57:45;;;;;;;6.47;2.43;;;19.80;99.90;;;;;;5066490;28;20205;-78
2022/10/30 09:00:12;;;;;;;6.23;2.10;;;19.80;99.90;;;;;;5061351;28;20558;-78
2022/10/30 09:02:38;;;;;;;10.90;2.70;;;19.90;99.90;;;;;;5049184;28;20190;-78
2022/10/30 09:05:07;;;;;;;8.63;2.20;;;19.90;99.90;;;;;;5048561;28;20206;-78
2022/10/30 09:07:35;;;;;;;6.40;2.43;;;19.90;99.90;;;;;;5059786;28;20286;-78
2022/10/30 09:10:02;;;;;;;9.97;2.70;;;20.10;99.90;;;;;;5061579;28;20190;-78
2022/10/30 09:12:29;;;;;;;9.33;2.70;;;20.20;99.90;;;;;;5038881;28;20280;-78
2022/10/30 09:14:55;;;;;;;4.93;2.80;;;20.20;99.90;;;;;;5062361;28;20195;-78
2022/10/30 09:17:21;;;;;;;7.53;2.47;;;20.20;99.90;;;;;;5070911;28;20241;-77
2022/10/30 09:19:51;;;;;;;6.63;2.53;;;20.30;99.90;;;;;;5071851;28;20254;-77
2022/10/30 09:22:18;;;;;;;6.70;2.33;;;20.50;99.90;;;;;;5072943;28;20275;-78
2022/10/30 09:24:47;;;;;;;3.43;2.23;;;20.50;99.90;;;;;;5054209;28;20190;-78
2022/10/30 09:27:14;;;;;;;7.70;2.50;;;20.60;99.90;;;;;;5071998;28;20194;-78
2022/10/30 09:29:40;;;;;;;5.33;2.17;;;20.70;99.90;;;;;;5033582;28;20502;-78
2022/10/30 09:32:10;;;;;;;8.77;2.70;;;20.70;99.90;;;;;;5077447;28;20310;-75
2022/10/30 09:34:38;;;;;;;7.03;2.50;;;20.80;99.90;;;;;;5067649;28;20190;-76
2022/10/30 09:37:05;;;;;;;6.20;2.40;;;20.90;99.90;;;;;;5051707;28;20195;-78
2022/10/30 09:39:31;;;;;;;7.77;2.50;;;21.00;99.90;;;;;;5075485;28;20221;-77
2022/10/30 09:42:07;;;;;;;10.13;2.60;;;21.00;99.90;;;;;;5069344;28;20221;-76
2022/10/30 09:45:03;;;;;;;7.03;2.40;;;20.90;99.90;;;;;;5051167;28;20179;-77
2022/10/30 09:48:00;;;;;;;8.57;2.60;;;21.00;99.90;;;;;;5078747;28;20191;-76
2022/10/30 09:51:34;;;;;;;6.70;2.40;;;21.10;99.90;;;;;;5042869;28;20797;-77
2022/10/30 09:54:35;;;;;;;9.60;2.57;;;21.20;99.90;;;;;;5014703;28;20209;-77
2022/10/30 09:57:32;;;;;;;6.37;2.07;;;21.40;99.90;;;;;;5044082;28;20658;-77
2022/10/30 10:00:18;;;;;;;10.90;2.60;;;21.50;99.90;;;;;;5068097;28;20754;-77
2022/10/30 10:03:32;;;;;;;7.97;2.40;;;21.60;99.90;;;;;;5063718;28;20218;-76
2022/10/30 10:06:01;;;;;;;9.67;2.80;;;21.80;99.90;;;;;;5065189;28;20699;-77
2022/10/30 10:09:00;;;;;;;5.57;2.20;;;21.90;99.90;;;;;;5060222;28;20194;-77
2022/10/30 10:11:36;;;;;;;7.30;2.50;;;21.90;99.90;;;;;;5059368;28;20190;-76
2022/10/30 10:14:20;;;;;;;11.15;2.65;;;22.00;99.90;;;;;;5047570;28;20190;-77
2022/10/30 10:16:54;;;;;;;6.70;2.70;;;22.30;99.90;;;;;;5047378;28;20275;-77
2022/10/30 10:19:39;;;;;;;7.78;2.65;;;22.70;99.90;;;;;;5061004;28;20270;-77
2022/10/30 10:22:25;;;;;;;9.50;2.20;;;23.70;99.90;;;;;;5058047;28;20232;-77
2022/10/30 10:24:54;;;;;;;7.55;2.80;;;25.90;99.90;;;;;;5067052;28;20288;-77
2022/10/30 10:27:52;;;;;;;6.43;2.72;;;27.40;99.90;;;;;;5077960;28;20228;-77
2022/10/30 10:30:20;;;;;;;14.07;2.80;;;28.60;99.90;;;;;;5038675;28;20516;-76
2022/10/30 10:33:30;;;;;;;9.98;2.50;;;27.90;99.90;;;;;;5062745;28;20281;-77
2022/10/30 10:36:23;;;;;;;5.80;2.40;;;26.70;99.90;;;;;;5058750;28;20186;-76
2022/10/30 10:39:03;;;;;;;7.85;2.85;;;25.40;99.90;;;;;;5067056;28;20202;-77
2022/10/30 10:41:54;;;;;;;4.38;2.33;;;24.70;99.90;;;;;;5088438;28;20285;-77
2022/10/30 10:44:23;;;;;;;9.43;2.80;;;24.30;99.90;;;;;;5067935;28;20262;-77
2022/10/30 10:47:04;;;;;;;6.45;2.53;;;24.40;99.90;;;;;;5081381;28;20182;-77
2022/10/30 10:49:58;;;;;;;16.20;2.95;;;24.40;99.90;;;;;;5051155;28;20485;-77
2022/10/30 10:52:46;;;;;;;7.93;3.00;;;24.30;99.90;;;;;;5068176;28;20178;-77
2022/10/30 10:55:43;;;;;;;8.93;2.75;;;24.40;99.90;;;;;;5070051;28;20224;-77
2022/10/30 10:58:46;;;;;;;8.80;3.03;;;25.10;99.90;;;;;;5067084;28;20197;-76
2022/10/30 11:01:44;;;;;;;14.43;2.60;;;24.40;99.90;;;;;;5049881;28;20678;-77
2022/10/30 11:04:38;;;;;;;17.08;4.45;;;23.60;99.90;;;;;;5050270;28;20268;-77
2022/10/30 11:07:43;;;;;;;7.45;3.00;;;23.40;99.90;;;;;;5034025;28;20190;-76
2022/10/30 11:10:17;;;;;;;7.95;2.80;;;23.30;99.90;;;;;;5069500;28;20225;-77
2022/10/30 11:12:43;;;;;;;10.82;2.50;;;23.30;99.90;;;;;;5084611;28;20531;-77
2022/10/30 11:15:41;;;;;;;10.20;2.78;;;23.30;99.90;;;;;;5066062;28;20603;-77
2022/10/30 11:18:10;;;;;;;7.28;2.42;;;23.30;99.90;;;;;;5050426;28;20174;-77
2022/10/30 11:20:58;;;;;;;12.15;2.80;;;23.30;99.90;;;;;;5040676;28;20210;-76
2022/10/30 11:23:39;;;;;;;11.07;2.60;;;23.30;99.90;;;;;;5035672;28;20214;-77
2022/10/30 11:26:19;;;;;;;9.70;2.50;;;23.30;99.90;;;;;;5065082;28;20178;-77
2022/10/30 11:29:22;;;;;;;13.02;2.47;;;23.40;99.90;;;;;;5081966;28;20647;-77
2022/10/30 11:32:03;;;;;;;7.97;2.78;;;23.40;99.90;;;;;;5070014;28;20185;-77
2022/10/30 11:34:35;;;;;;;7.53;2.60;;;23.30;99.90;;;;;;5042946;28;20185;-77
2022/10/30 11:37:02;;;;;;;10.38;2.72;;;23.30;99.90;;;;;;5075090;28;20178;-76
2022/10/30 11:39:34;;;;;;;12.88;2.70;;;23.30;99.90;;;;;;5040630;28;20202;-77
2022/10/30 11:42:06;;;;;;;6.15;2.40;;;23.30;99.90;;;;;;5053254;28;20272;-77
2022/10/30 11:44:46;;;;;;;5.18;2.72;;;23.20;99.90;;;;;;5065378;28;20361;-77
2022/10/30 11:47:15;;;;;;;14.80;2.75;;;23.20;99.90;;;;;;5083654;28;20820;-77
2022/10/30 11:49:53;;;;;;;8.32;2.80;;;23.10;99.90;;;;;;5066241;28;20185;-76
2022/10/30 11:52:23;;;;;;;4.93;2.28;;;23.20;99.90;;;;;;5067854;28;20186;-76
2022/10/30 11:55:01;;;;;;;5.05;2.90;;;23.10;99.90;;;;;;5049793;28;20194;-76
2022/10/30 11:57:44;;;;;;;7.97;2.65;;;23.10;99.90;;;;;;5067598;28;20323;-76
2022/10/30 12:00:27;;;;;;;10.57;2.95;;;23.10;99.90;;;;;;5087506;28;20313;-77
2022/10/30 12:03:04;;;;;;;11.70;3.08;;;23.10;99.90;;;;;;5087185;28;20185;-77
2022/10/30 12:05:43;;;;;;;9.77;3.00;;;23.00;99.90;;;;;;5067727;28;20178;-76
2022/10/30 12:08:09;;;;;;;10.40;2.80;;;23.10;99.90;;;;;;5068360;28;20639;-77
2022/10/30 12:10:57;;;;;;;11.45;2.80;;;23.10;99.90;;;;;;5064575;28;20266;-77
2022/10/30 12:13:26;;;;;;;11.32;3.10;;;23.00;99.90;;;;;;5063781;28;20197;-77
2022/10/30 12:16:16;;;;;;;8.75;2.85;;;23.00;99.90;;;;;;5065302;28;20273;-77
2022/10/30 12:19:14;;;;;;;10.10;2.83;;;22.90;99.90;;;;;;5068411;28;20250;-77
2022/10/30 12:22:00;;;;;;;11.57;2.80;;;22.90;99.90;;;;;;5052851;28;20217;-77
2022/10/30 12:24:35;;;;;;;10.57;2.90;;;22.90;99.90;;;;;;5087030;28;20178;-77
2022/10/30 12:27:10;;;;;;;6.65;2.95;;;22.80;99.90;;;;;;5066573;28;20170;-77
2022/10/30 12:30:12;;;;;;;6.47;2.60;;;22.80;99.90;;;;;;5067377;28;20642;-77
2022/10/30 12:32:54;;;;;;;8.88;2.60;;;22.80;99.90;;;;;;5048224;28;20194;-77
2022/10/30 12:35:45;;;;;;;6.60;2.58;;;22.70;99.90;;;;;;5046931;28;20273;-77
2022/10/30 12:38:49;;;;;;;7.07;2.72;;;22.80;99.90;;;;;;5066283;28;20237;-77
2022/10/30 12:41:24;;;;;;;12.50;3.35;;;22.70;99.90;;;;;;5083937;28;20299;-77
2022/10/30 12:44:33;;;;;;;9.48;2.83;;;22.60;99.90;;;;;;5078436;28;20749;-77
2022/10/30 12:47:11;;;;;;;9.77;2.77;;;22.50;99.90;;;;;;5019290;28;20202;-76
2022/10/30 12:49:59;;;;;;;13.50;3.05;;;22.50;99.90;;;;;;5087047;28;20264;-77
2022/10/30 12:52:54;;;;;;;7.30;3.03;;;22.50;99.90;;;;;;5078652;28;20257;-77
2022/10/30 12:55:48;;;;;;;6.72;2.53;;;22.50;99.90;;;;;;5063200;28;20272;-77
2022/10/30 12:58:36;;;;;;;5.78;2.70;;;22.40;99.90;;;;;;5069100;28;20181;-77
2022/10/30 13:01:31;;;;;;;13.60;2.80;;;22.40;99.90;;;;;;5069054;28;20205;-77
2022/10/30 13:04:17;;;;;;;10.05;2.92;;;22.30;99.90;;;;;;5076915;28;20182;-77
2022/10/30 13:07:19;;;;;;;10.53;2.87;;;22.30;99.90;;;;;;5032351;28;20190;-76
2022/10/30 13:10:14;;;;;;;9.90;2.80;;;22.20;99.90;;;;;;5067306;28;20181;-77
2022/10/30 13:12:46;;;;;;;5.80;2.57;;;22.20;99.90;;;;;;5065980;28;20183;-77
2022/10/30 13:15:56;;;;;;;12.43;2.70;;;22.10;99.90;;;;;;5051241;28;20617;-77
2022/10/30 13:18:26;;;;;;;6.90;2.80;;;22.10;99.90;;;;;;5006829;28;21017;-77
2022/10/30 13:21:32;;;;;;;7.95;2.90;;;22.00;99.90;;;;;;5072260;28;20275;-77